createdAt,value
2017-10-15T00:00:47.834Z,12.67
2017-10-15T00:01:47.872Z,12.70
2017-10-15T00:02:47.906Z,12.71
2017-10-15T00:03:47.941Z,12.74
2017-10-15T00:04:47.977Z,12.77
2017-10-15T00:05:48.017Z,12.67
2017-10-15T00:06:48.050Z,12.66
2017-10-15T00:07:48.084Z,12.67
2017-10-15T00:08:48.120Z,12.69
2017-10-15T00:09:48.157Z,12.70
2017-10-15T00:10:48.194Z,12.74
2017-10-15T00:11:48.230Z,12.67
2017-10-15T00:12:48.265Z,12.67
2017-10-15T00:13:48.303Z,12.74
2017-10-15T00:14:48.337Z,12.67
2017-10-15T00:15:48.373Z,12.77
2017-10-15T00:16:48.412Z,12.71
2017-10-15T00:17:48.447Z,12.69
2017-10-15T00:18:48.485Z,12.63
2017-10-15T00:19:48.519Z,12.57
2017-10-15T00:20:48.554Z,12.62
2017-10-15T00:21:48.590Z,12.64
2017-10-15T00:22:48.627Z,12.60
2017-10-15T00:23:48.660Z,12.63
2017-10-15T00:24:48.697Z,12.62
2017-10-15T00:25:48.743Z,12.62
2017-10-15T00:26:49.751Z,12.56
2017-10-15T00:27:48.804Z,12.60
2017-10-15T00:28:48.841Z,12.54
2017-10-15T00:29:48.878Z,12.51
2017-10-15T00:30:48.913Z,12.57
2017-10-15T00:31:48.950Z,12.52
2017-10-15T00:32:48.984Z,12.57
2017-10-15T00:33:49.019Z,12.59
2017-10-15T00:34:49.053Z,12.49
2017-10-15T00:35:49.095Z,12.57
2017-10-15T00:36:49.129Z,12.56
2017-10-15T00:37:49.343Z,12.51
2017-10-15T00:38:49.200Z,12.51
2017-10-15T00:39:49.237Z,12.59
2017-10-15T00:40:49.271Z,12.54
2017-10-15T00:41:49.305Z,12.56
2017-10-15T00:42:49.351Z,12.51
2017-10-15T00:43:49.382Z,12.56
2017-10-15T00:44:49.418Z,12.57
2017-10-15T00:45:49.452Z,12.56
2017-10-15T00:46:49.491Z,12.56
2017-10-15T00:47:49.521Z,12.46
2017-10-15T00:48:49.564Z,12.48
2017-10-15T00:49:49.593Z,12.54
2017-10-15T00:50:49.632Z,12.54
2017-10-15T00:51:49.683Z,12.54
2017-10-15T00:52:49.702Z,12.52
2017-10-15T00:53:49.754Z,12.46
2017-10-15T00:54:49.774Z,12.51
2017-10-15T00:55:49.809Z,12.48
2017-10-15T00:56:49.848Z,12.44
2017-10-15T00:57:49.879Z,12.48
2017-10-15T00:58:49.915Z,12.49
2017-10-15T00:59:49.955Z,12.37
2017-10-15T01:00:49.988Z,12.31
2017-10-15T01:01:50.024Z,12.37
2017-10-15T01:02:50.058Z,12.33
2017-10-15T01:03:50.093Z,12.29
2017-10-15T01:04:50.130Z,12.31
2017-10-15T01:05:50.179Z,12.34
2017-10-15T01:06:50.206Z,12.27
2017-10-15T01:07:50.240Z,12.24
2017-10-15T01:08:50.274Z,12.29
2017-10-15T01:09:50.309Z,12.27
2017-10-15T01:10:50.346Z,12.24
2017-10-15T01:11:50.388Z,12.26
2017-10-15T01:12:50.418Z,12.23
2017-10-15T01:13:50.453Z,12.16
2017-10-15T01:14:50.493Z,12.27
2017-10-15T01:15:50.526Z,12.26
2017-10-15T01:16:50.561Z,12.26
2017-10-15T01:17:50.593Z,12.24
2017-10-15T01:18:50.633Z,12.21
2017-10-15T01:19:50.674Z,12.21
2017-10-15T01:20:50.700Z,12.24
2017-10-15T01:21:50.742Z,12.26
2017-10-15T01:22:50.773Z,12.23
2017-10-15T01:23:50.807Z,12.20
2017-10-15T01:24:50.842Z,12.16
2017-10-15T01:25:50.887Z,12.13
2017-10-15T01:26:50.922Z,12.15
2017-10-15T01:27:50.950Z,12.21
2017-10-15T01:28:51.036Z,12.08
2017-10-15T01:29:51.022Z,12.16
2017-10-15T01:30:51.060Z,12.20
2017-10-15T01:31:51.094Z,12.11
2017-10-15T01:32:51.127Z,12.06
2017-10-15T01:33:51.166Z,12.08
2017-10-15T01:34:51.199Z,12.11
2017-10-15T01:35:51.233Z,12.06
2017-10-15T01:36:51.272Z,12.15
2017-10-15T01:37:51.308Z,12.09
2017-10-15T01:38:51.342Z,12.09
2017-10-15T01:39:51.385Z,12.11
2017-10-15T01:40:51.420Z,12.09
2017-10-15T01:41:51.450Z,12.09
2017-10-15T01:42:51.483Z,12.11
2017-10-15T01:43:51.521Z,12.11
2017-10-15T01:44:51.564Z,12.11
2017-10-15T01:45:51.591Z,12.13
2017-10-15T01:46:51.627Z,11.99
2017-10-15T01:47:51.660Z,12.05
2017-10-15T01:48:51.698Z,11.96
2017-10-15T01:49:51.741Z,11.94
2017-10-15T01:50:51.772Z,11.94
2017-10-15T01:51:51.807Z,12.04
2017-10-15T01:52:51.839Z,11.94
2017-10-15T01:53:51.878Z,11.99
2017-10-15T01:54:51.912Z,11.94
2017-10-15T01:55:51.949Z,11.90
2017-10-15T01:56:51.981Z,11.90
2017-10-15T01:57:52.018Z,11.85
2017-10-15T01:58:52.053Z,11.82
2017-10-15T01:59:52.088Z,11.85
2017-10-15T02:00:52.123Z,11.89
2017-10-15T02:01:52.160Z,11.83
2017-10-15T02:02:52.193Z,11.87
2017-10-15T02:03:52.229Z,11.83
2017-10-15T02:04:52.272Z,11.83
2017-10-15T02:05:52.300Z,11.87
2017-10-15T02:06:52.338Z,11.86
2017-10-15T02:07:52.371Z,11.85
2017-10-15T02:08:52.406Z,11.87
2017-10-15T02:09:52.447Z,11.86
2017-10-15T02:10:52.476Z,11.85
2017-10-15T02:11:52.513Z,11.87
2017-10-15T02:12:52.550Z,11.87
2017-10-15T02:13:52.587Z,11.86
2017-10-15T02:14:52.621Z,11.83
2017-10-15T02:15:52.660Z,11.90
2017-10-15T02:16:52.700Z,11.82
2017-10-15T02:17:52.724Z,11.86
2017-10-15T02:18:52.758Z,11.85
2017-10-15T02:19:52.796Z,11.74
2017-10-15T02:20:52.830Z,11.72
2017-10-15T02:21:52.873Z,11.71
2017-10-15T02:22:52.904Z,11.77
2017-10-15T02:23:52.936Z,11.72
2017-10-15T02:24:52.973Z,11.74
2017-10-15T02:25:53.016Z,11.78
2017-10-15T02:26:53.047Z,11.74
2017-10-15T02:27:53.076Z,11.68
2017-10-15T02:28:53.120Z,11.67
2017-10-15T02:29:53.161Z,11.70
2017-10-15T02:30:53.184Z,11.78
2017-10-15T02:31:53.221Z,11.77
2017-10-15T02:32:53.264Z,11.71
2017-10-15T02:33:53.290Z,11.71
2017-10-15T02:34:53.333Z,11.78
2017-10-15T02:35:53.357Z,11.74
2017-10-15T02:36:53.400Z,11.78
2017-10-15T02:37:53.430Z,11.70
2017-10-15T02:38:53.466Z,11.68
2017-10-15T02:39:53.498Z,11.68
2017-10-15T02:40:53.535Z,11.70
2017-10-15T02:41:53.574Z,11.74
2017-10-15T02:42:53.605Z,11.68
2017-10-15T02:43:53.653Z,11.74
2017-10-15T02:44:53.676Z,11.74
2017-10-15T02:45:53.709Z,11.70
2017-10-15T02:46:53.750Z,11.68
2017-10-15T02:47:53.783Z,11.68
2017-10-15T02:48:53.820Z,11.78
2017-10-15T02:49:53.865Z,11.70
2017-10-15T02:50:53.886Z,11.65
2017-10-15T02:51:53.925Z,11.68
2017-10-15T02:52:53.966Z,11.68
2017-10-15T02:53:53.998Z,11.68
2017-10-15T02:54:54.031Z,11.68
2017-10-15T02:55:54.070Z,11.68
2017-10-15T02:56:54.098Z,11.70
2017-10-15T02:57:54.151Z,11.68
2017-10-15T02:58:54.168Z,11.67
2017-10-15T02:59:54.203Z,11.68
2017-10-15T03:00:54.235Z,11.65
2017-10-15T03:01:54.278Z,11.59
2017-10-15T03:02:54.308Z,11.71
2017-10-15T03:03:54.342Z,11.68
2017-10-15T03:04:54.378Z,11.70
2017-10-15T03:05:54.411Z,11.70
2017-10-15T03:06:54.452Z,11.71
2017-10-15T03:07:54.484Z,11.62
2017-10-15T03:08:54.537Z,11.65
2017-10-15T03:09:54.555Z,11.62
2017-10-15T03:10:54.588Z,11.62
2017-10-15T03:11:54.628Z,11.59
2017-10-15T03:12:54.658Z,11.62
2017-10-15T03:13:54.699Z,11.62
2017-10-15T03:14:54.727Z,11.50
2017-10-15T03:15:54.762Z,11.53
2017-10-15T03:16:54.850Z,11.50
2017-10-15T03:17:54.835Z,11.46
2017-10-15T03:18:54.869Z,11.50
2017-10-15T03:19:54.904Z,11.54
2017-10-15T03:20:54.940Z,11.56
2017-10-15T03:21:54.974Z,11.53
2017-10-15T03:22:55.009Z,11.54
2017-10-15T03:23:55.042Z,11.50
2017-10-15T03:24:55.080Z,11.49
2017-10-15T03:25:55.120Z,11.53
2017-10-15T03:26:55.149Z,11.44
2017-10-15T03:27:55.183Z,11.49
2017-10-15T03:28:55.221Z,11.47
2017-10-15T03:29:55.255Z,11.39
2017-10-15T03:30:55.290Z,11.46
2017-10-15T03:31:55.325Z,11.44
2017-10-15T03:32:55.359Z,11.41
2017-10-15T03:33:55.396Z,11.41
2017-10-15T03:34:55.428Z,11.44
2017-10-15T03:35:55.467Z,11.31
2017-10-15T03:36:55.510Z,11.43
2017-10-15T03:37:55.533Z,11.31
2017-10-15T03:38:55.569Z,11.36
2017-10-15T03:39:55.605Z,11.41
2017-10-15T03:40:55.642Z,11.41
2017-10-15T03:41:55.676Z,11.43
2017-10-15T03:42:55.712Z,11.43
2017-10-15T03:43:55.743Z,11.41
2017-10-15T03:44:55.778Z,11.43
2017-10-15T03:45:55.813Z,11.46
2017-10-15T03:46:55.854Z,11.43
2017-10-15T03:47:55.890Z,11.43
2017-10-15T03:48:55.919Z,11.41
2017-10-15T03:49:55.955Z,11.43
2017-10-15T03:50:55.990Z,11.46
2017-10-15T03:51:56.028Z,11.39
2017-10-15T03:52:56.057Z,11.36
2017-10-15T03:53:56.095Z,11.38
2017-10-15T03:54:56.130Z,11.36
2017-10-15T03:55:56.166Z,11.34
2017-10-15T03:56:56.204Z,11.35
2017-10-15T03:57:56.235Z,11.36
2017-10-15T03:58:56.271Z,11.36
2017-10-15T03:59:56.303Z,11.32
2017-10-15T04:00:56.336Z,11.35
2017-10-15T04:01:56.383Z,11.35
2017-10-15T04:02:56.408Z,11.35
2017-10-15T04:03:56.444Z,11.35
2017-10-15T04:04:56.477Z,11.39
2017-10-15T04:05:56.514Z,11.38
2017-10-15T04:06:56.552Z,11.32
2017-10-15T04:07:56.582Z,11.38
2017-10-15T04:08:56.615Z,11.43
2017-10-15T04:09:56.651Z,11.36
2017-10-15T04:10:56.685Z,11.34
2017-10-15T04:11:56.724Z,11.27
2017-10-15T04:12:56.755Z,11.29
2017-10-15T04:13:56.791Z,11.32
2017-10-15T04:14:56.827Z,11.19
2017-10-15T04:15:56.877Z,11.24
2017-10-15T04:16:56.898Z,11.25
2017-10-15T04:17:56.929Z,11.20
2017-10-15T04:18:56.968Z,11.16
2017-10-15T04:19:57.000Z,11.24
2017-10-15T04:20:57.042Z,11.16
2017-10-15T04:21:57.071Z,11.16
2017-10-15T04:22:57.104Z,11.17
2017-10-15T04:23:57.141Z,11.20
2017-10-15T04:24:57.179Z,11.14
2017-10-15T04:25:57.215Z,11.14
2017-10-15T04:26:57.245Z,11.11
2017-10-15T04:27:57.280Z,11.16
2017-10-15T04:28:57.313Z,11.14
2017-10-15T04:29:57.351Z,11.16
2017-10-15T04:30:57.386Z,11.16
2017-10-15T04:31:57.429Z,11.11
2017-10-15T04:32:57.456Z,11.16
2017-10-15T04:33:57.491Z,11.11
2017-10-15T04:34:57.524Z,11.14
2017-10-15T04:35:57.557Z,11.14
2017-10-15T04:36:57.595Z,11.09
2017-10-15T04:37:57.627Z,11.02
2017-10-15T04:38:57.662Z,11.13
2017-10-15T04:39:57.702Z,11.09
2017-10-15T04:40:57.732Z,11.14
2017-10-15T04:41:57.771Z,11.10
2017-10-15T04:42:57.803Z,11.13
2017-10-15T04:43:57.832Z,11.01
2017-10-15T04:44:57.868Z,11.07
2017-10-15T04:45:57.904Z,11.03
2017-10-15T04:46:57.938Z,11.10
2017-10-15T04:47:57.982Z,11.07
2017-10-15T04:48:58.012Z,11.02
2017-10-15T04:49:58.047Z,11.02
2017-10-15T04:50:58.081Z,10.99
2017-10-15T04:51:58.113Z,11.02
2017-10-15T04:52:58.148Z,11.03
2017-10-15T04:53:58.182Z,10.94
2017-10-15T04:54:58.217Z,10.98
2017-10-15T04:55:58.250Z,10.99
2017-10-15T04:56:58.288Z,11.01
2017-10-15T04:57:58.320Z,10.99
2017-10-15T04:58:58.369Z,11.01
2017-10-15T04:59:58.391Z,11.06
2017-10-15T05:00:58.435Z,11.01
2017-10-15T05:01:58.465Z,10.96
2017-10-15T05:02:58.497Z,10.98
2017-10-15T05:03:58.529Z,11.02
2017-10-15T05:04:58.561Z,11.07
2017-10-15T05:05:58.596Z,11.01
2017-10-15T05:06:58.632Z,10.99
2017-10-15T05:07:58.665Z,11.06
2017-10-15T05:08:58.700Z,10.94
2017-10-15T05:09:58.734Z,10.96
2017-10-15T05:10:58.782Z,11.06
2017-10-15T05:11:58.817Z,10.98
2017-10-15T05:12:58.840Z,10.94
2017-10-15T05:13:58.877Z,11.07
2017-10-15T05:14:58.907Z,11.02
2017-10-15T05:15:58.942Z,10.96
2017-10-15T05:16:58.977Z,11.06
2017-10-15T05:17:59.012Z,11.07
2017-10-15T05:18:59.046Z,11.03
2017-10-15T05:19:59.083Z,11.02
2017-10-15T05:20:59.117Z,11.02
2017-10-15T05:21:59.151Z,11.02
2017-10-15T05:22:59.191Z,11.02
2017-10-15T05:23:59.218Z,11.02
2017-10-15T05:24:59.262Z,10.92
2017-10-15T05:25:59.287Z,10.96
2017-10-15T05:26:59.330Z,10.94
2017-10-15T05:27:59.355Z,10.95
2017-10-15T05:28:59.392Z,10.92
2017-10-15T05:29:59.425Z,10.84
2017-10-15T05:30:59.461Z,10.88
2017-10-15T05:31:59.497Z,10.84
2017-10-15T05:32:59.532Z,10.95
2017-10-15T05:33:59.563Z,10.84
2017-10-15T05:34:59.598Z,10.84
2017-10-15T05:35:59.635Z,10.86
2017-10-15T05:36:59.673Z,10.95
2017-10-15T05:37:59.702Z,10.86
2017-10-15T05:38:59.737Z,10.86
2017-10-15T05:39:59.779Z,10.92
2017-10-15T05:40:59.805Z,10.89
2017-10-15T05:41:59.842Z,10.94
2017-10-15T05:42:59.878Z,10.94
2017-10-15T05:43:59.907Z,10.89
2017-10-15T05:44:59.941Z,10.94
2017-10-15T05:45:59.979Z,10.95
2017-10-15T05:47:00.019Z,10.98
2017-10-15T05:48:00.047Z,10.94
2017-10-15T05:49:00.085Z,10.92
2017-10-15T05:50:00.117Z,11.01
2017-10-15T05:51:00.151Z,10.96
2017-10-15T05:52:00.189Z,11.02
2017-10-15T05:53:00.220Z,10.98
2017-10-15T05:54:00.260Z,10.99
2017-10-15T05:55:00.297Z,11.02
2017-10-15T05:56:00.329Z,10.99
2017-10-15T05:57:00.361Z,11.02
2017-10-15T05:58:00.393Z,11.02
2017-10-15T05:59:00.431Z,10.99
2017-10-15T06:00:00.459Z,11.06
2017-10-15T06:01:00.493Z,10.96
2017-10-15T06:02:00.530Z,10.95
2017-10-15T06:03:00.563Z,11.06
2017-10-15T06:04:00.601Z,10.96
2017-10-15T06:05:00.633Z,11.03
2017-10-15T06:06:00.671Z,11.03
2017-10-15T06:07:00.711Z,10.98
2017-10-15T06:08:00.738Z,11.03
2017-10-15T06:09:00.771Z,11.10
2017-10-15T06:10:00.807Z,10.98
2017-10-15T06:11:00.843Z,10.96
2017-10-15T06:12:00.884Z,11.01
2017-10-15T06:13:00.912Z,11.06
2017-10-15T06:14:00.942Z,11.07
2017-10-15T06:15:00.980Z,11.01
2017-10-15T06:16:01.012Z,11.01
2017-10-15T06:17:01.050Z,11.02
2017-10-15T06:18:01.083Z,11.03
2017-10-15T06:19:01.115Z,11.09
2017-10-15T06:20:01.156Z,10.99
2017-10-15T06:21:01.185Z,11.01
2017-10-15T06:22:01.218Z,11.07
2017-10-15T06:23:01.254Z,11.17
2017-10-15T06:24:01.292Z,11.19
2017-10-15T06:25:01.325Z,11.17
2017-10-15T06:26:01.357Z,11.14
2017-10-15T06:27:01.404Z,11.24
2017-10-15T06:28:01.435Z,11.27
2017-10-15T06:29:01.463Z,11.27
2017-10-15T06:30:01.496Z,11.24
2017-10-15T06:31:01.531Z,11.24
2017-10-15T06:32:01.565Z,11.21
2017-10-15T06:33:01.600Z,11.24
2017-10-15T06:34:01.636Z,11.25
2017-10-15T06:35:01.668Z,11.31
2017-10-15T06:36:01.702Z,11.39
2017-10-15T06:37:01.737Z,11.39
2017-10-15T06:38:01.781Z,11.38
2017-10-15T06:39:01.810Z,11.39
2017-10-15T06:40:01.843Z,11.35
2017-10-15T06:41:01.877Z,11.39
2017-10-15T06:42:01.915Z,11.39
2017-10-15T06:43:01.948Z,11.41
2017-10-15T06:44:01.980Z,11.41
2017-10-15T06:45:02.014Z,11.43
2017-10-15T06:46:02.052Z,11.36
2017-10-15T06:47:02.096Z,11.43
2017-10-15T06:48:02.118Z,11.46
2017-10-15T06:49:02.155Z,11.52
2017-10-15T06:50:02.188Z,11.47
2017-10-15T06:51:02.223Z,11.53
2017-10-15T06:52:02.258Z,11.52
2017-10-15T06:53:02.289Z,11.52
2017-10-15T06:54:02.326Z,11.53
2017-10-15T06:55:02.368Z,11.50
2017-10-15T06:56:02.397Z,11.50
2017-10-15T06:57:02.445Z,11.56
2017-10-15T06:58:02.469Z,11.61
2017-10-15T06:59:02.502Z,11.67
2017-10-15T07:00:02.534Z,11.70
2017-10-15T07:01:02.573Z,11.59
2017-10-15T07:02:02.612Z,11.74
2017-10-15T07:03:02.642Z,11.78
2017-10-15T07:04:02.678Z,11.68
2017-10-15T07:05:02.709Z,11.74
2017-10-15T07:06:02.745Z,11.74
2017-10-15T07:07:02.784Z,11.77
2017-10-15T07:08:02.818Z,11.82
2017-10-15T07:09:02.850Z,11.80
2017-10-15T07:10:02.884Z,11.93
2017-10-15T07:11:02.923Z,11.80
2017-10-15T07:12:02.970Z,11.85
2017-10-15T07:13:02.991Z,11.96
2017-10-15T07:14:03.025Z,11.93
2017-10-15T07:15:03.060Z,11.96
2017-10-15T07:16:03.106Z,11.97
2017-10-15T07:17:03.130Z,11.90
2017-10-15T07:18:03.168Z,12.11
2017-10-15T07:19:03.273Z,12.05
2017-10-15T07:20:03.235Z,12.19
2017-10-15T07:21:03.269Z,12.19
2017-10-15T07:22:03.309Z,12.30
2017-10-15T07:23:03.348Z,12.24
2017-10-15T07:24:03.374Z,12.31
2017-10-15T07:25:03.414Z,12.44
2017-10-15T07:26:03.457Z,12.49
2017-10-15T07:27:03.490Z,12.46
2017-10-15T07:28:03.518Z,12.52
2017-10-15T07:29:03.552Z,12.49
2017-10-15T07:30:03.594Z,12.63
2017-10-15T07:31:03.624Z,12.67
2017-10-15T07:32:03.664Z,12.67
2017-10-15T07:33:03.694Z,12.85
2017-10-15T07:34:03.731Z,12.87
2017-10-15T07:35:03.767Z,12.89
2017-10-15T07:36:03.815Z,13.02
2017-10-15T07:37:03.839Z,13.04
2017-10-15T07:38:03.871Z,13.09
2017-10-15T07:39:03.915Z,13.12
2017-10-15T07:40:03.945Z,13.25
2017-10-15T07:41:03.980Z,13.30
2017-10-15T07:42:04.016Z,13.24
2017-10-15T07:43:04.052Z,13.30
2017-10-15T07:44:04.098Z,13.44
2017-10-15T07:45:04.123Z,13.36
2017-10-15T07:46:04.161Z,13.46
2017-10-15T07:47:04.195Z,13.49
2017-10-15T07:48:04.230Z,13.61
2017-10-15T07:49:04.265Z,13.56
2017-10-15T07:50:04.302Z,13.65
2017-10-15T07:51:04.337Z,13.70
2017-10-15T07:52:04.382Z,13.71
2017-10-15T07:53:04.414Z,13.74
2017-10-15T07:54:04.450Z,13.83
2017-10-15T07:55:04.488Z,13.95
2017-10-15T07:56:04.518Z,13.94
2017-10-15T07:57:04.559Z,13.99
2017-10-15T07:58:04.590Z,13.95
2017-10-15T07:59:04.628Z,14.02
2017-10-15T08:00:04.663Z,14.12
2017-10-15T08:01:04.700Z,14.04
2017-10-15T08:02:04.742Z,14.16
2017-10-15T08:03:04.773Z,14.24
2017-10-15T08:04:04.809Z,14.29
2017-10-15T08:05:04.849Z,14.35
2017-10-15T08:06:04.885Z,14.37
2017-10-15T08:07:04.930Z,14.37
2017-10-15T08:08:04.963Z,14.43
2017-10-15T08:09:04.996Z,14.50
2017-10-15T08:10:05.034Z,14.62
2017-10-15T08:11:05.068Z,14.57
2017-10-15T08:12:05.104Z,14.57
2017-10-15T08:13:05.143Z,14.78
2017-10-15T08:14:05.178Z,14.74
2017-10-15T08:15:05.217Z,14.81
2017-10-15T08:16:05.249Z,14.90
2017-10-15T08:17:05.293Z,14.95
2017-10-15T08:18:05.328Z,15.06
2017-10-15T08:19:05.366Z,15.11
2017-10-15T08:20:05.398Z,15.17
2017-10-15T08:21:05.437Z,15.24
2017-10-15T08:22:05.472Z,15.31
2017-10-15T08:23:05.511Z,15.31
2017-10-15T08:24:05.547Z,15.41
2017-10-15T08:25:05.586Z,15.48
2017-10-15T08:26:05.622Z,15.57
2017-10-15T08:27:05.659Z,15.52
2017-10-15T08:28:05.695Z,15.59
2017-10-15T08:29:05.738Z,15.76
2017-10-15T08:30:05.773Z,15.81
2017-10-15T08:31:05.813Z,15.78
2017-10-15T08:32:05.847Z,15.89
2017-10-15T08:33:05.883Z,15.92
2017-10-15T08:34:05.925Z,15.94
2017-10-15T08:35:05.967Z,15.97
2017-10-15T08:36:06.000Z,16.03
2017-10-15T08:37:06.041Z,16.09
2017-10-15T08:38:06.073Z,16.22
2017-10-15T08:39:06.110Z,16.22
2017-10-15T08:40:06.150Z,16.37
2017-10-15T08:41:06.187Z,16.31
2017-10-15T08:42:06.225Z,16.35
2017-10-15T08:43:06.272Z,16.42
2017-10-15T08:44:06.301Z,16.44
2017-10-15T08:45:06.339Z,16.50
2017-10-15T08:46:06.412Z,16.63
2017-10-15T08:47:06.423Z,16.74
2017-10-15T08:48:06.453Z,16.78
2017-10-15T08:49:06.494Z,16.73
2017-10-15T08:50:06.527Z,16.83
2017-10-15T08:51:06.566Z,16.86
2017-10-15T08:52:06.605Z,16.86
2017-10-15T08:53:06.647Z,16.99
2017-10-15T08:54:06.683Z,16.93
2017-10-15T08:55:06.726Z,17.04
2017-10-15T08:56:06.760Z,17.10
2017-10-15T08:57:06.798Z,17.11
2017-10-15T08:58:06.838Z,17.07
2017-10-15T08:59:06.878Z,17.10
2017-10-15T09:00:06.915Z,17.23
2017-10-15T09:01:06.952Z,17.11
2017-10-15T09:02:06.995Z,17.26
2017-10-15T09:03:07.035Z,17.32
2017-10-15T09:04:07.068Z,17.32
2017-10-15T09:05:07.110Z,17.32
2017-10-15T09:06:07.151Z,17.43
2017-10-15T09:07:07.183Z,17.47
2017-10-15T09:08:07.222Z,17.53
2017-10-15T09:09:07.264Z,17.47
2017-10-15T09:10:07.300Z,17.48
2017-10-15T09:11:07.344Z,17.57
2017-10-15T09:12:07.378Z,17.67
2017-10-15T09:13:07.416Z,17.67
2017-10-15T09:14:07.455Z,17.69
2017-10-15T09:15:07.496Z,17.78
2017-10-15T09:16:07.535Z,17.76
2017-10-15T09:17:07.585Z,17.74
2017-10-15T09:18:07.614Z,17.73
2017-10-15T09:19:07.656Z,17.73
2017-10-15T09:20:09.363Z,17.81
2017-10-15T09:21:07.731Z,17.79
2017-10-15T09:22:07.777Z,17.82
2017-10-15T09:23:07.812Z,17.95
2017-10-15T09:24:07.847Z,18.00
2017-10-15T09:25:07.886Z,18.13
2017-10-15T09:26:07.929Z,18.07
2017-10-15T09:27:07.972Z,18.18
2017-10-15T09:28:08.818Z,18.13
2017-10-15T09:29:08.044Z,18.12
2017-10-15T09:30:08.083Z,18.15
2017-10-15T09:31:08.122Z,18.21
2017-10-15T09:32:08.171Z,18.22
2017-10-15T09:33:08.200Z,18.21
2017-10-15T09:34:08.242Z,18.34
2017-10-15T09:35:08.279Z,18.24
2017-10-15T09:36:08.325Z,18.39
2017-10-15T09:37:08.359Z,18.36
2017-10-15T09:38:08.399Z,18.39
2017-10-15T09:39:08.438Z,18.34
2017-10-15T09:40:08.477Z,18.42
2017-10-15T09:41:08.520Z,18.55
2017-10-15T09:42:08.559Z,18.54
2017-10-15T09:43:08.626Z,18.52
2017-10-15T09:44:08.641Z,18.55
2017-10-15T09:45:08.675Z,18.59
2017-10-15T09:46:08.715Z,18.68
2017-10-15T09:47:08.765Z,18.72
2017-10-15T09:48:08.834Z,18.74
2017-10-15T09:49:08.834Z,18.70
2017-10-15T09:50:08.886Z,18.74
2017-10-15T09:51:08.921Z,18.70
2017-10-15T09:52:08.957Z,18.76
2017-10-15T09:53:09.000Z,18.74
2017-10-15T09:54:09.038Z,18.74
2017-10-15T09:55:09.076Z,18.73
2017-10-15T09:56:09.119Z,18.72
2017-10-15T09:57:09.168Z,18.73
2017-10-15T09:58:09.202Z,18.86
2017-10-15T09:59:09.239Z,18.83
2017-10-15T10:00:09.283Z,18.83
2017-10-15T10:01:09.318Z,18.80
2017-10-15T10:02:09.357Z,18.82
2017-10-15T10:03:09.397Z,18.94
2017-10-15T10:04:09.440Z,18.94
2017-10-15T10:05:09.477Z,18.95
2017-10-15T10:06:09.521Z,18.91
2017-10-15T10:07:09.561Z,18.97
2017-10-15T10:08:09.598Z,18.95
2017-10-15T10:09:09.637Z,18.97
2017-10-15T10:10:09.683Z,18.97
2017-10-15T10:11:09.720Z,19.05
2017-10-15T10:12:09.758Z,19.06
2017-10-15T10:13:09.803Z,19.11
2017-10-15T10:14:09.838Z,19.05
2017-10-15T10:15:09.880Z,19.10
2017-10-15T10:16:09.925Z,19.11
2017-10-15T10:17:09.963Z,19.17
2017-10-15T10:18:10.010Z,19.18
2017-10-15T10:19:10.047Z,19.25
2017-10-15T10:20:10.083Z,19.32
2017-10-15T10:21:10.123Z,19.31
2017-10-15T10:22:10.172Z,19.31
2017-10-15T10:23:10.206Z,19.33
2017-10-15T10:24:10.246Z,19.31
2017-10-15T10:25:10.291Z,19.32
2017-10-15T10:26:10.324Z,19.31
2017-10-15T10:27:10.369Z,19.42
2017-10-15T10:28:10.405Z,19.43
2017-10-15T10:29:10.446Z,19.43
2017-10-15T10:30:10.488Z,19.48
2017-10-15T10:31:10.529Z,19.51
2017-10-15T10:32:10.583Z,19.55
2017-10-15T10:33:10.612Z,19.53
2017-10-15T10:34:10.649Z,19.50
2017-10-15T10:35:10.698Z,19.50
2017-10-15T10:36:10.731Z,19.55
2017-10-15T10:37:10.783Z,19.51
2017-10-15T10:38:10.820Z,19.54
2017-10-15T10:39:10.854Z,19.54
2017-10-15T10:40:10.894Z,19.65
2017-10-15T10:41:10.934Z,19.61
2017-10-15T10:42:10.978Z,19.57
2017-10-15T10:43:11.015Z,19.73
2017-10-15T10:44:11.058Z,19.72
2017-10-15T10:45:11.097Z,19.72
2017-10-15T10:46:11.140Z,19.79
2017-10-15T10:47:11.180Z,19.79
2017-10-15T10:48:11.222Z,19.75
2017-10-15T10:49:11.264Z,19.91
2017-10-15T10:50:11.302Z,19.76
2017-10-15T10:51:11.350Z,19.80
2017-10-15T10:52:11.388Z,19.90
2017-10-15T10:53:11.446Z,19.83
2017-10-15T10:54:11.472Z,19.95
2017-10-15T10:55:11.507Z,19.94
2017-10-15T10:56:11.549Z,19.98
2017-10-15T10:57:11.597Z,19.93
2017-10-15T10:58:11.641Z,19.98
2017-10-15T10:59:11.672Z,20.05
2017-10-15T11:00:11.713Z,20.03
2017-10-15T11:01:11.760Z,20.03
2017-10-15T11:02:11.798Z,20.12
2017-10-15T11:03:11.839Z,20.09
2017-10-15T11:04:11.878Z,20.13
2017-10-15T11:05:11.920Z,20.24
2017-10-15T11:06:11.961Z,20.20
2017-10-15T11:07:12.009Z,20.20
2017-10-15T11:08:12.043Z,20.16
2017-10-15T11:09:12.087Z,20.15
2017-10-15T11:10:12.125Z,20.24
2017-10-15T11:11:12.166Z,20.16
2017-10-15T11:12:12.208Z,20.25
2017-10-15T11:13:12.247Z,20.30
2017-10-15T11:14:12.290Z,20.39
2017-10-15T11:15:12.334Z,20.41
2017-10-15T11:16:12.374Z,20.42
2017-10-15T11:17:12.418Z,20.38
2017-10-15T11:18:12.477Z,20.47
2017-10-15T11:19:12.499Z,20.47
2017-10-15T11:20:12.544Z,20.47
2017-10-15T11:21:12.583Z,20.41
2017-10-15T11:22:12.628Z,20.42
2017-10-15T11:23:12.664Z,20.42
2017-10-15T11:24:12.705Z,20.41
2017-10-15T11:25:12.745Z,20.49
2017-10-15T11:26:12.787Z,20.51
2017-10-15T11:27:12.844Z,20.58
2017-10-15T11:28:12.879Z,20.59
2017-10-15T11:29:12.912Z,20.62
2017-10-15T11:30:12.957Z,20.68
2017-10-15T11:31:12.998Z,20.79
2017-10-15T11:32:13.039Z,20.74
2017-10-15T11:33:13.081Z,20.71
2017-10-15T11:34:13.121Z,20.76
2017-10-15T11:35:13.165Z,20.81
2017-10-15T11:36:13.210Z,20.86
2017-10-15T11:37:13.259Z,20.86
2017-10-15T11:38:13.289Z,20.95
2017-10-15T11:39:13.331Z,20.96
2017-10-15T11:40:13.370Z,20.95
2017-10-15T11:41:13.416Z,21.01
2017-10-15T11:42:13.456Z,20.91
2017-10-15T11:43:13.501Z,20.98
2017-10-15T11:44:13.538Z,21.02
2017-10-15T11:45:13.579Z,20.87
2017-10-15T11:46:13.621Z,21.04
2017-10-15T11:47:13.663Z,21.11
2017-10-15T11:48:13.716Z,21.02
2017-10-15T11:49:13.750Z,21.11
2017-10-15T11:50:13.789Z,21.06
2017-10-15T11:51:13.834Z,21.09
2017-10-15T11:52:13.874Z,21.04
2017-10-15T11:53:13.915Z,21.04
2017-10-15T11:54:13.958Z,21.11
2017-10-15T11:55:14.005Z,21.13
2017-10-15T11:56:14.044Z,21.21
2017-10-15T11:57:14.089Z,21.21
2017-10-15T11:58:14.124Z,21.20
2017-10-15T11:59:15.901Z,21.20
2017-10-15T12:00:14.215Z,21.13
2017-10-15T12:01:14.254Z,21.21
2017-10-15T12:02:14.303Z,21.09
2017-10-15T12:03:14.337Z,21.23
2017-10-15T12:04:14.381Z,21.24
2017-10-15T12:05:14.420Z,21.29
2017-10-15T12:06:14.502Z,21.36
2017-10-15T12:07:14.505Z,21.32
2017-10-15T12:08:14.547Z,21.34
2017-10-15T12:09:14.596Z,21.35
2017-10-15T12:10:14.632Z,21.39
2017-10-15T12:11:14.692Z,21.32
2017-10-15T12:12:14.756Z,21.27
2017-10-15T12:13:14.759Z,21.34
2017-10-15T12:14:14.804Z,21.42
2017-10-15T12:15:14.847Z,21.46
2017-10-15T12:16:14.884Z,21.42
2017-10-15T12:17:14.927Z,21.41
2017-10-15T12:18:14.974Z,21.39
2017-10-15T12:19:15.013Z,21.44
2017-10-15T12:20:15.055Z,21.48
2017-10-15T12:21:15.103Z,21.42
2017-10-15T12:22:15.145Z,21.45
2017-10-15T12:23:15.184Z,21.42
2017-10-15T12:24:15.223Z,21.50
2017-10-15T12:25:15.265Z,21.51
2017-10-15T12:26:15.309Z,21.51
2017-10-15T12:27:15.356Z,21.59
2017-10-15T12:28:15.392Z,21.54
2017-10-15T12:29:15.439Z,21.59
2017-10-15T12:30:15.477Z,21.56
2017-10-15T12:31:15.521Z,21.54
2017-10-15T12:32:15.567Z,21.69
2017-10-15T12:33:15.604Z,21.59
2017-10-15T12:34:15.652Z,21.59
2017-10-15T12:35:15.706Z,21.67
2017-10-15T12:36:15.732Z,21.67
2017-10-15T12:37:15.777Z,21.66
2017-10-15T12:38:15.822Z,21.67
2017-10-15T12:39:15.861Z,21.66
2017-10-15T12:40:15.903Z,21.66
2017-10-15T12:41:15.946Z,21.61
2017-10-15T12:42:15.987Z,21.63
2017-10-15T12:43:16.029Z,21.76
2017-10-15T12:44:16.073Z,21.78
2017-10-15T12:45:16.136Z,21.74
2017-10-15T12:46:16.162Z,21.75
2017-10-15T12:47:16.206Z,21.81
2017-10-15T12:48:16.242Z,21.67
2017-10-15T12:49:16.284Z,21.72
2017-10-15T12:50:16.327Z,21.75
2017-10-15T12:51:16.370Z,21.76
2017-10-15T12:52:16.417Z,21.76
2017-10-15T12:53:16.455Z,21.79